North Sebago, ME

4:35 PM EST on January 26, 2015 (GMT -0500)
Portland International | Change Station
CLOSE
Current Station
Airport
Location: Portland,
Elevation: 62 ft
Nearby Weather Stations
Active Advisory: Blizzard Warning

Elev 62 ft 43.64 °N, 70.30 °W | Updated 44 minutes ago

Clear
Clear
20 °F
Feels Like 8 °F
N
12
Wind Variable Wind from NE

Today
High -- | Low -- °F
--% Chance of Precip.
Yesterday
High -- | Low -- °F
Precip. -- in
7:05 AM 4:44 PM
Waxing Crescent, 47% visible
Pressure 30.17 in
Visibility 10.0 miles
Clouds Mostly Cloudy 6000 ft
Overcast 20000 ft
Windchill 8 °F
Dew Point 2 °F
Humidity 46%
Rainfall 0.00 in
Snow Depth Not available.
UV 0 out of 12
Pollen .10 out of 12
Air Quality Not available.
Flu Activity Not available.
METAR KPWM 262051Z 04010KT 10SM BKN060 OVC200 M07/M17 A3016 RMK AO2 SLP214 T10671167 56004

More Conditions Fewer Conditions

Pressure 30.17 in
Visibility 10.0 miles
Clouds Mostly Cloudy 6000 ft
Overcast 20000 ft
Windchill 8 °F
Dew Point 2 °F
Humidity 46%
Rainfall 0.00 in
Snow Depth Not available.
UV 0 out of 12
Pollen .10 out of 12
Air Quality Not available.
Flu Activity Not available.
METAR KPWM 262051Z 04010KT 10SM BKN060 OVC200 M07/M17 A3016 RMK AO2 SLP214 T10671167 56004

More Conditions Fewer Conditions

10-Day Weather Forecast

Almanac

Astronomy

Jan. 26, 2015 Rise Set
Actual Time
Civil Twilight
Nautical Twilight
Astronomical Twilight
Moon
Length of Visible Light
Length of Day
Tomorrow will be .
, % of the Moon is Illuminated

Today's Extremes

State Highs State Lows

Community

WunderPhotos

Upload Photos

1,790,367 photos uploaded!

WunderBlogs® & News

Nearby

Air Quality

  Air Quality AQ Index Pollutant
Not available.

Snow Depth

Station Depth Elevation

Earthquake Activity

City Distance Mag. Time & Date
Minimum magnitude displayed is 2.5.

Coastal Water Temperatures

Place Temperature

Nearby Weather Stations